Terminal Aerodrome Forecast
Issued by NWS

Home | Current Version | Previous Version | Text Only | Print | Product List | Glossary Off
Versions: 1 2 3 4 5 6 7 8 9 10 11 12 13 14 15 16 17 18

000
FTUS43 KBIS 221000 AAA
TAFDIK
TAF AMD
KDIK 221035Z 2211/2306 30018KT P6SM SCT008 OVC012
      TEMPO 2211/2214 3SM -SN OVC008
     FM221400 31016G22KT 4SM -SN OVC008
     FM221900 35022G33KT 3/4SM -SN BLSN VV008=

USA.gov is the U.S. government's official web portal to all federal, state and local government web resources and services.